METAR Data
IDs: Format: Raw Decoded Include TAF

Data at: 0429 UTC 26 Sep 2018

KTZR 260415Z AUTO 20005G15KT 10SM BKN028 BKN034 OVC060 22/21 A2997 RMK AO2 LTG DSNT S T02170211
KTZR 260355Z AUTO 20009G17KT 7SM -RA SCT028 BKN034 OVC060 22/21 A2999 RMK AO2 P0001 T02200210
KTZR 260335Z AUTO 19007KT 10SM OVC060 22/21 A2999 RMK AO2 T02200209
KTZR 260315Z AUTO 21008KT 10SM SCT060 22/21 A3000 RMK AO2 T02160208
KTZR 260255Z AUTO 21007G15KT 10SM SCT014 SCT019 BKN060 22/21 A2999 RMK AO2 T02200210
KTZR 260235Z AUTO 21009G16KT 10SM BKN014 BKN070 OVC080 22/21 A2999 RMK AO2 T02230210
KTZR 260215Z AUTO 19012G18KT 10SM SCT014 SCT036 OVC080 23/21 A2998 RMK AO2 T02250212
KTZR 260155Z AUTO 18008KT 10SM BKN017 BKN038 BKN090 23/21 A2997 RMK AO2 LTG DSNT S T02250211
KTZR 260135Z AUTO 18005KT 10SM BKN017 BKN043 BKN090 23/21 A2998 RMK AO2 LTG DSNT W T02250211
KTZR 260115Z AUTO 18006KT 10SM SCT017 23/21 A2998 RMK AO2 T02250211
KTZR 260055Z AUTO 19008G14KT 10SM SCT033 SCT050 23/21 A2998 RMK AO2 LTG DSNT W T02300211
KTZR 260035Z AUTO 19011G19KT 10SM SCT023 SCT033 BKN070 23/21 A2998 RMK AO2 T02330211
KTZR 260015Z AUTO 20014G20KT 10SM SCT023 BKN030 BKN070 24/21 A2999 RMK AO2 LTG DSNT N AND SW T02360212
KTZR 252250Z 19010G19KT 10SM BKN027 OVC032 24/22 A2998
KTZR 252150Z 16006KT 10SM BKN022 OVC030 24/22 A2997
KTZR 252050Z 20013G20KT 10SM BKN021 24/21 A2999
KTZR 251950Z 19011G20KT 10SM SCT022 OVC033 23/21 A3001
KTZR 251850Z 18006KT 10SM OVC018 23/22 A3005
KTZR 251750Z 19006G16KT 10SM OVC016 22/21 A3008
KTZR 251647Z 20015KT 10SM OVC012 22/21 A3007
KTZR 251605Z 21010G16KT 10SM OVC010 22/21 A3007
KTZR 251547Z 20013G18KT 10SM OVC008 22/21 A3007
KTZR 251534Z 20012KT 10SM BKN008 OVC012 22/21 A3008
KTZR 251447Z 20012G17KT 10SM OVC010 21/20 A3008
KTZR 251437Z 19008G16KT 10SM OVC010 21/20 A3009
KTZR 251347Z 20009G15KT 10SM OVC006 20/19 A3008
KTZR 251247Z 18009G16KT 7SM BKN006 BKN009 OVC014 19/19 A3007
KTZR 251147Z 18007G15KT 7SM OVC004 19/19 A3008
KTZR 251115Z 17009G16KT 7SM OVC004 19/19 A3008
KTZR 251055Z AUTO 18008G14KT 7SM VCTS OVC004 20/19 A3008 RMK AO2 LTG DSNT W AND NW T01950192
KTZR 251035Z AUTO 18006G16KT 7SM OVC004 20/19 A3007 RMK AO2 LTG DSNT W AND NW T01950192
KTZR 251015Z AUTO 19011G15KT 7SM 20/19 A3007 RMK AO2 LTG DSNT W AND NW T01950192
KTZR 250955Z AUTO 16007G15KT 7SM -RA 20/19 A3006 RMK AO2 LTG DSNT W AND NW T01950192
KTZR 250935Z AUTO 17006KT 7SM 20/19 A3007 RMK AO2 LTG DSNT W T01950192
KTZR 250915Z AUTO 17006KT 7SM 20/19 A3007 RMK AO2 LTG DSNT W T01950192
KTZR 250855Z AUTO 19006G15KT 7SM OVC004 20/19 A3006 RMK AO2 LTG DSNT W T01950191
KTZR 250835Z AUTO 18007G15KT 7SM OVC006 20/19 A3006 RMK AO2 LTG DSNT NW T01950191
KTZR 250815Z AUTO 18009G15KT 7SM OVC006 20/19 A3006 RMK AO2 LTG DSNT W T01950192
KTZR 250755Z AUTO 18009G16KT 7SM OVC006 20/19 A3007 RMK AO2 T01950192
KTZR 250735Z AUTO 17012G16KT 7SM OVC006 20/19 A3007 RMK AO2 T01950191
KTZR 250715Z AUTO 18007G16KT 7SM OVC006 20/19 A3007 RMK AO2 T01950192
KTZR 250655Z AUTO 18012G16KT 7SM -RA OVC006 20/19 A3008 RMK AO2 T01950192
KTZR 250635Z AUTO 19012G16KT 7SM OVC006 20/19 A3007 RMK AO2 T01960192
KTZR 250615Z AUTO 18011G17KT 10SM OVC006 20/19 A3007 RMK AO2 T01960193
KTZR 250555Z AUTO 19011G16KT 10SM -RA OVC006 20/19 A3008 RMK AO2 P0010 60029 T01960193 10199 20195 402050163
KTZR 250535Z AUTO 17010KT 4SM +RA OVC006 20/19 A3007 RMK AO2 P0007 T01960193
KTZR 250515Z AUTO 19010G16KT 7SM RA OVC006 20/19 A3008 RMK AO2 T01960193
KTZR 250455Z AUTO 18011G16KT 7SM RA OVC006 20/20 A3008 RMK AO2 P0002 T01970195
KTZR 250435Z AUTO 19009G17KT 150V210 7SM RA OVC006 20/20 A3009 RMK AO2 P0002 T01970195
KTZR 250415Z AUTO 19009G17KT 5SM +RA OVC006 20/20 A3009 RMK AO2 P0001 T01970195
KTZR 250355Z AUTO 18010KT 5SM RA BKN006 OVC013 20/20 A3008 RMK AO2 P0005 T01970195
KTZR 250335Z AUTO 16013G16KT 10SM DZ OVC006 20/19 A3008 RMK AO2 P0001 T01970194
KTZR 250315Z AUTO 16009G16KT 7SM -RA OVC006 20/19 A3008 RMK AO2 P0001 T01970193
KTZR 250255Z AUTO 18013G17KT 10SM OVC006 20/20 A3008 RMK AO2 P0001 60011 T01970195
KTZR 250235Z AUTO 17012G16KT 10SM OVC006 20/19 A3008 RMK AO2 P0001 T01970193
KTZR 250215Z AUTO 17013G19KT 5SM RA BKN006 OVC013 20/19 A3008 RMK AO2 P0001 T01970193
KTZR 250155Z AUTO 16011G17KT 5SM RA OVC006 20/19 A3008 RMK AO2 P0009 T01970193
KTZR 250135Z AUTO 15013G19KT 3SM +RA OVC006 20/19 A3007 RMK AO2 P0007 T01970193
KTZR 250115Z AUTO 15006KT 4SM RA BKN006 BKN017 OVC029 20/20 A3008 RMK AO2 P0002 T01970195
KTZR 250055Z AUTO 14010KT 7SM RA BKN006 OVC010 20/20 A3007 RMK AO2 P0001 T01990195
KTZR 250035Z AUTO 15010G14KT 10SM RA BKN006 OVC013 20/20 A3007 RMK AO2 P0001 T01980195
KTZR 250015Z AUTO 13009KT 7SM -RA BKN006 OVC015 20/20 A3008 RMK AO2 T01980195
KTZR 242247Z 16008KT 6SM DZ BKN009 BKN014 OVC035 20/19 A3009 RMK RAE34
KTZR 242147Z 15010G16KT 6SM RA OVC007 21/20 A3009
KTZR 242047Z 14007KT 6SM RA OVC007 21/20 A3009
KTZR 241947Z 15008KT 5SM RA OVC007 21/20 A3010
KTZR 241847Z 14005KT 7SM RA OVC005 20/20 A3013
KTZR 241747Z 15005KT 5SM RA OVC005 20/19 A3015
KTZR 241645Z 13005KT 5SM RA OVC003 19/19 A3016